Time;durP1;ratioP1;P1;durP2;ratioP2;P2;SDS_P1;SDS_P2;PMS_P1;PMS_P2;Temp;Humidity;BMP_temperature;BMP_pressure;BME280_temperature;BME280_humidity;BME280_pressure;Samples;Min_cycle;Max_cycle;Signal;HPM_P1;HPM_P2
2022/03/16 00:01:29;;;;;;;53.87;36.80;;;;;;;4.14;94.18;102375.25;5016051;28;20072;-83
2022/03/16 00:03:55;;;;;;;51.77;36.23;;;;;;;4.18;94.34;102371.31;5014722;28;20659;-82
2022/03/16 00:06:20;;;;;;;55.77;37.73;;;;;;;4.14;94.16;102370.72;5015680;28;20037;-83
2022/03/16 00:08:45;;;;;;;53.53;37.27;;;;;;;4.17;94.52;102375.81;5016373;28;20121;-83
2022/03/16 00:11:11;;;;;;;51.03;35.57;;;;;;;4.10;94.47;102371.97;5015964;28;20310;-83
2022/03/16 00:13:36;;;;;;;52.60;37.20;;;;;;;4.03;94.53;102371.66;5016440;28;20038;-82
2022/03/16 00:16:01;;;;;;;53.50;36.43;;;;;;;3.97;94.14;102366.81;5015652;28;20037;-82
2022/03/16 00:18:30;;;;;;;50.20;36.27;;;;;;;3.85;94.51;102371.38;5016316;28;20049;-82
2022/03/16 00:20:56;;;;;;;50.63;35.07;;;;;;;3.82;93.75;102371.66;5015813;28;20038;-82
2022/03/16 00:23:21;;;;;;;46.07;33.47;;;;;;;3.72;93.25;102370.72;5015988;28;20048;-83
2022/03/16 00:25:47;;;;;;;50.00;34.67;;;;;;;3.76;93.70;102371.31;5015049;28;20649;-82
2022/03/16 00:28:12;;;;;;;51.60;35.97;;;;;;;3.65;94.27;102370.38;5012978;28;20045;-83
2022/03/16 00:30:38;;;;;;;51.43;36.53;;;;;;;3.65;94.13;102370.38;5016011;28;20045;-82
2022/03/16 00:33:03;;;;;;;54.07;37.60;;;;;;;3.68;94.72;102369.28;5030570;28;20049;-83
2022/03/16 00:35:29;;;;;;;51.27;36.83;;;;;;;3.63;95.21;102368.81;5015816;28;20416;-83
2022/03/16 00:37:54;;;;;;;53.87;35.97;;;;;;;3.60;95.32;102374.44;5014920;28;20044;-83
2022/03/16 00:40:20;;;;;;;46.87;33.53;;;;;;;3.53;94.76;102380.28;5016088;28;20061;-82
2022/03/16 00:42:45;;;;;;;49.97;36.00;;;;;;;3.57;95.04;102385.41;5013424;28;20488;-83
2022/03/16 00:45:11;;;;;;;51.83;34.77;;;;;;;3.51;94.98;102381.44;5008259;28;20057;-82
2022/03/16 00:47:36;;;;;;;54.20;36.37;;;;;;;3.51;94.94;102386.78;5013855;28;20045;-82
2022/03/16 00:50:02;;;;;;;50.30;35.80;;;;;;;3.47;95.04;102386.19;5014584;28;20045;-82
2022/03/16 00:52:27;;;;;;;50.40;35.83;;;;;;;3.41;95.40;102378.63;5014990;28;20481;-83
2022/03/16 00:54:52;;;;;;;52.03;35.80;;;;;;;3.41;95.13;102383.16;5013433;28;20065;-82
2022/03/16 00:57:18;;;;;;;52.87;36.10;;;;;;;3.35;95.30;102374.63;5016678;28;20064;-82
2022/03/16 00:59:43;;;;;;;51.40;34.80;;;;;;;3.35;95.41;102366.59;5017335;28;20041;-82
2022/03/16 01:02:09;;;;;;;46.10;33.60;;;;;;;3.31;95.60;102365.16;5014474;28;20538;-82
2022/03/16 01:04:34;;;;;;;51.40;34.20;;;;;;;3.31;95.30;102364.31;5015812;28;20046;-82
2022/03/16 01:06:59;;;;;;;48.43;33.87;;;;;;;3.26;95.40;102372.72;4997486;28;20613;-82
2022/03/16 01:09:25;;;;;;;48.87;34.43;;;;;;;3.25;95.84;102375.50;5015158;28;20584;-82
2022/03/16 01:11:50;;;;;;;50.67;35.27;;;;;;;3.21;96.16;102370.41;5015142;28;20104;-82
2022/03/16 01:14:17;;;;;;;50.63;35.13;;;;;;;3.21;95.98;102370.41;5014692;28;20694;-82
2022/03/16 01:16:43;;;;;;;52.17;35.57;;;;;;;3.15;96.50;102365.56;5015393;28;20611;-82
2022/03/16 01:19:08;;;;;;;55.80;37.13;;;;;;;3.15;96.59;102368.22;5014691;28;20037;-82
2022/03/16 01:21:34;;;;;;;55.13;36.90;;;;;;;3.17;96.54;102368.13;5015171;28;20059;-82
2022/03/16 01:24:00;;;;;;;54.83;37.03;;;;;;;3.14;96.79;102361.19;5014233;28;20462;-82
2022/03/16 01:26:25;;;;;;;54.03;37.20;;;;;;;3.08;96.51;102359.00;5014533;28;20045;-82
2022/03/16 01:28:51;;;;;;;50.57;35.57;;;;;;;3.03;96.42;102361.19;5014007;28;20041;-82
2022/03/16 01:31:20;;;;;;;49.50;34.83;;;;;;;2.95;95.97;102356.50;5021842;28;20045;-82
2022/03/16 01:33:45;;;;;;;48.63;33.47;;;;;;;2.95;95.65;102363.66;5013249;28;20049;-82
2022/03/16 01:36:11;;;;;;;51.57;35.70;;;;;;;2.91;95.47;102357.72;5014329;28;20041;-82
2022/03/16 01:38:36;;;;;;;52.27;35.07;;;;;;;2.86;95.81;102355.38;5014451;28;20032;-82
2022/03/16 01:41:02;;;;;;;50.97;34.60;;;;;;;2.82;95.39;102340.56;5014941;28;20464;-81
2022/03/16 01:43:27;;;;;;;48.40;34.67;;;;;;;2.82;95.24;102345.91;5012516;28;20044;-82
2022/03/16 01:45:53;;;;;;;49.17;33.97;;;;;;;2.80;95.64;102337.16;5014646;28;20037;-82
2022/03/16 01:48:19;;;;;;;51.33;35.77;;;;;;;2.81;96.15;102340.69;5015828;28;20037;-82
2022/03/16 01:50:46;;;;;;;53.63;35.47;;;;;;;2.76;96.44;102338.38;5015065;28;20049;-82
2022/03/16 01:53:12;;;;;;;46.73;34.00;;;;;;;2.78;96.30;102339.09;5014280;28;20048;-82
2022/03/16 01:55:39;;;;;;;47.73;33.47;;;;;;;2.77;96.25;102334.72;5014557;28;20631;-82
2022/03/16 01:58:05;;;;;;;48.93;35.10;;;;;;;2.75;96.31;102330.44;5014056;28;20049;-81
2022/03/16 02:00:30;;;;;;;47.53;33.90;;;;;;;2.70;96.60;102315.63;5014140;28;20037;-82
2022/03/16 02:02:56;;;;;;;50.13;35.33;;;;;;;2.81;96.79;102328.13;5013838;28;20053;-82
2022/03/16 02:05:21;;;;;;;50.43;37.13;;;;;;;2.84;97.34;102325.22;5013847;28;20045;-82
2022/03/16 02:07:47;;;;;;;50.50;37.10;;;;;;;2.90;97.63;102326.56;5014171;28;20045;-82
2022/03/16 02:10:13;;;;;;;53.73;38.60;;;;;;;2.93;98.21;102318.25;5014011;28;20043;-82
2022/03/16 02:12:46;;;;;;;55.80;39.17;;;;;;;2.95;98.82;102305.63;5014655;28;20057;-82
2022/03/16 02:15:12;;;;;;;51.50;36.77;;;;;;;2.93;98.31;102310.22;5013880;28;20119;-82
2022/03/16 02:17:37;;;;;;;54.67;39.43;;;;;;;2.97;98.36;102316.19;5013460;28;20045;-82
2022/03/16 02:20:04;;;;;;;56.13;38.67;;;;;;;3.00;98.70;102311.41;5013765;28;20045;-82
2022/03/16 02:22:33;;;;;;;55.37;40.33;;;;;;;3.00;98.82;102299.88;5014076;28;20168;-82
2022/03/16 02:24:58;;;;;;;56.03;39.40;;;;;;;3.05;99.06;102311.06;5014184;28;20049;-82
2022/03/16 02:27:24;;;;;;;58.07;41.10;;;;;;;3.05;99.15;102305.69;5012398;28;20308;-82
2022/03/16 02:29:49;;;;;;;56.53;41.00;;;;;;;3.09;98.90;102301.78;5013504;28;20400;-82
2022/03/16 02:32:15;;;;;;;56.40;40.20;;;;;;;3.10;98.98;102298.16;5013798;28;20069;-82
2022/03/16 02:34:40;;;;;;;55.77;40.73;;;;;;;3.12;98.96;102306.06;5013375;28;20432;-82
2022/03/16 02:37:05;;;;;;;54.73;39.37;;;;;;;3.12;98.66;102306.88;5013672;28;20041;-82
2022/03/16 02:39:31;;;;;;;54.37;39.67;;;;;;;3.09;98.69;102291.09;5014165;28;20045;-81
2022/03/16 02:41:56;;;;;;;52.57;38.90;;;;;;;3.06;98.17;102290.47;5012554;28;20136;-81
2022/03/16 02:44:22;;;;;;;50.03;37.43;;;;;;;3.11;98.07;102294.47;5006176;28;20064;-82
2022/03/16 02:46:47;;;;;;;48.90;36.33;;;;;;;3.08;98.00;102297.41;5013903;28;20091;-82
2022/03/16 02:49:13;;;;;;;50.93;38.33;;;;;;;3.08;98.25;102294.72;5013210;28;20477;-82
2022/03/16 02:51:38;;;;;;;50.87;36.33;;;;;;;3.11;98.49;102302.50;5014124;28;20041;-82
2022/03/16 02:54:03;;;;;;;49.70;38.03;;;;;;;3.07;98.15;102298.38;5013364;28;20037;-81
2022/03/16 02:56:29;;;;;;;49.97;37.63;;;;;;;3.06;97.88;102303.88;5013105;28;20332;-82
2022/03/16 02:58:55;;;;;;;49.67;37.50;;;;;;;3.02;98.35;102287.22;5013482;28;20665;-82
2022/03/16 03:01:20;;;;;;;50.93;38.03;;;;;;;3.10;98.15;102300.81;5013082;28;20048;-82
2022/03/16 03:03:46;;;;;;;51.47;38.57;;;;;;;3.13;98.25;102305.06;5012435;28;20489;-81
2022/03/16 03:06:11;;;;;;;51.40;37.07;;;;;;;3.11;98.35;102302.50;5013095;28;20033;-82
2022/03/16 03:08:36;;;;;;;49.93;37.37;;;;;;;3.10;98.47;102295.47;5013410;28;20594;-81
2022/03/16 03:11:02;;;;;;;50.93;36.97;;;;;;;3.03;98.61;102286.22;5013061;28;20034;-82
2022/03/16 03:13:27;;;;;;;48.70;36.17;;;;;;;3.04;97.82;102293.28;5012176;28;20102;-81
2022/03/16 03:15:53;;;;;;;46.97;35.83;;;;;;;3.06;97.65;102294.03;5010710;28;20440;-82
2022/03/16 03:18:18;;;;;;;49.20;35.63;;;;;;;2.95;97.72;102284.19;5013122;28;20137;-81
2022/03/16 03:20:43;;;;;;;45.43;34.47;;;;;;;2.99;97.66;102295.47;5012989;28;20103;-82
2022/03/16 03:23:09;;;;;;;46.73;35.40;;;;;;;2.93;97.66;102288.81;5012635;28;20041;-82
2022/03/16 03:25:34;;;;;;;48.40;36.37;;;;;;;2.91;97.65;102297.94;5011764;28;20554;-82
2022/03/16 03:27:59;;;;;;;45.53;33.13;;;;;;;2.87;97.77;102292.84;5011613;28;20041;-82
2022/03/16 03:30:25;;;;;;;47.77;35.57;;;;;;;2.86;97.86;102290.31;5013002;28;20048;-81
2022/03/16 03:32:50;;;;;;;50.43;36.87;;;;;;;2.84;98.13;102293.09;5012773;28;20052;-82
2022/03/16 03:35:16;;;;;;;48.77;36.87;;;;;;;2.82;97.94;102295.03;5013028;28;20033;-82
2022/03/16 03:37:41;;;;;;;48.43;35.60;;;;;;;2.80;98.22;102302.38;5012946;28;20520;-81
2022/03/16 03:40:07;;;;;;;51.40;37.50;;;;;;;2.78;98.12;102298.94;5012899;28;20646;-83
2022/03/16 03:42:33;;;;;;;50.03;36.87;;;;;;;2.79;98.15;102295.31;5013272;28;20044;-82
2022/03/16 03:44:58;;;;;;;51.37;37.77;;;;;;;2.82;98.57;102311.09;5012675;28;20452;-81
2022/03/16 03:47:36;;;;;;;51.63;36.10;;;;;;;2.80;98.80;102301.50;5012938;28;20092;-82
2022/03/16 03:50:02;;;;;;;53.03;37.90;;;;;;;2.84;98.87;102298.47;4995209;28;20045;-82
2022/03/16 03:52:27;;;;;;;48.27;36.90;;;;;;;2.84;98.63;102297.59;5012895;28;20060;-82
2022/03/16 03:54:53;;;;;;;51.23;37.43;;;;;;;2.85;98.70;102300.13;5012290;28;20037;-83
2022/03/16 03:57:18;;;;;;;50.77;38.63;;;;;;;2.85;98.69;102294.78;5012765;28;20056;-81
2022/03/16 03:59:44;;;;;;;52.27;38.47;;;;;;;2.86;98.86;102296.50;5013296;28;20042;-81
2022/03/16 04:02:09;;;;;;;51.27;38.60;;;;;;;2.86;99.31;102290.31;5027752;28;20029;-82
2022/03/16 04:04:34;;;;;;;51.20;38.77;;;;;;;2.85;99.12;102300.13;5012652;28;20407;-82
2022/03/16 04:07:00;;;;;;;51.63;39.37;;;;;;;2.86;98.81;102301.84;5012980;28;20038;-83
2022/03/16 04:09:25;;;;;;;50.93;38.50;;;;;;;2.84;98.79;102298.47;5012730;28;20065;-82
2022/03/16 04:11:50;;;;;;;52.70;39.67;;;;;;;2.87;98.93;102300.88;5012928;28;20475;-82
2022/03/16 04:14:16;;;;;;;53.77;39.33;;;;;;;2.87;98.96;102298.19;5011604;28;20655;-82
2022/03/16 04:16:42;;;;;;;52.63;39.57;;;;;;;2.87;98.84;102297.38;5011601;28;20042;-81
2022/03/16 04:19:07;;;;;;;53.90;41.23;;;;;;;2.90;98.88;102296.22;5012363;28;20040;-80
2022/03/16 04:21:33;;;;;;;55.53;40.43;;;;;;;2.86;99.16;102290.31;5006108;28;20476;-82
2022/03/16 04:23:59;;;;;;;52.37;39.47;;;;;;;2.82;98.80;102288.84;5012502;28;20114;-82
2022/03/16 04:26:24;;;;;;;56.60;41.23;;;;;;;2.86;98.91;102301.00;5015745;28;20259;-81
2022/03/16 04:28:50;;;;;;;53.73;39.70;;;;;;;2.84;99.06;102298.47;5015865;28;20489;-81
2022/03/16 04:31:15;;;;;;;57.33;41.40;;;;;;;2.80;99.07;102296.13;5016110;28;20045;-81
2022/03/16 04:33:41;;;;;;;54.37;40.73;;;;;;;2.83;99.10;102293.22;5015454;28;20041;-82
2022/03/16 04:36:06;;;;;;;54.30;41.37;;;;;;;2.78;99.25;102298.09;5015006;28;21410;-82
2022/03/16 04:38:33;;;;;;;54.70;40.87;;;;;;;2.80;98.87;102297.00;5014063;28;20491;-82
2022/03/16 04:41:02;;;;;;;57.00;41.87;;;;;;;2.81;99.07;102298.69;5008993;28;20049;-82
2022/03/16 04:43:28;;;;;;;58.73;42.37;;;;;;;2.78;99.46;102298.94;5015325;28;20034;-82
2022/03/16 04:45:54;;;;;;;60.23;43.57;;;;;;;2.79;99.42;102295.31;5016189;28;20107;-82
2022/03/16 04:48:19;;;;;;;56.00;42.47;;;;;;;2.76;99.30;102283.97;5030738;28;20053;-81
2022/03/16 04:50:44;;;;;;;55.70;42.37;;;;;;;2.76;99.48;102289.34;5015223;28;20041;-82
2022/03/16 04:53:10;;;;;;;56.63;41.70;;;;;;;2.71;99.27;102284.38;5015648;28;20037;-82
2022/03/16 04:55:36;;;;;;;57.97;41.53;;;;;;;2.69;99.46;102287.19;5015364;28;20061;-81
2022/03/16 04:58:02;;;;;;;55.93;41.37;;;;;;;2.70;99.41;102288.84;5015203;28;20518;-82
2022/03/16 05:00:28;;;;;;;58.13;43.00;;;;;;;2.66;99.46;102283.88;5015830;28;20515;-83
2022/03/16 05:02:53;;;;;;;56.33;43.17;;;;;;;2.66;99.27;102284.72;5015690;28;20044;-83
2022/03/16 05:05:19;;;;;;;56.33;41.73;;;;;;;2.64;99.54;102285.84;5014694;28;20136;-82
2022/03/16 05:07:44;;;;;;;55.47;41.97;;;;;;;2.67;99.49;102297.13;5015364;28;20073;-81
2022/03/16 05:10:11;;;;;;;56.97;42.63;;;;;;;2.67;99.57;102289.09;5014441;28;20132;-82
2022/03/16 05:12:41;;;;;;;59.70;43.33;;;;;;;2.66;100.00;102289.22;5015429;28;20045;-81
2022/03/16 05:15:08;;;;;;;57.10;42.80;;;;;;;2.68;99.69;102287.31;5029628;28;20037;-81
2022/03/16 05:17:37;;;;;;;58.17;42.87;;;;;;;2.70;99.80;102283.50;5015478;28;20303;-82
2022/03/16 05:20:04;;;;;;;63.87;43.73;;;;;;;2.72;99.92;102294.09;5014994;28;20195;-81
2022/03/16 05:22:29;;;;;;;58.40;43.00;;;;;;;2.72;99.89;102290.56;5015427;28;20152;-81
2022/03/16 05:24:55;;;;;;;61.70;42.97;;;;;;;2.76;99.99;102297.38;5014975;28;20497;-81
2022/03/16 05:27:48;;;;;;;58.03;41.97;;;;;;;2.75;99.83;102283.16;5013002;28;20049;-81
2022/03/16 05:30:14;;;;;;;60.17;42.67;;;;;;;2.69;99.47;102279.16;5015215;28;20037;-83
2022/03/16 05:32:41;;;;;;;57.43;41.27;;;;;;;2.69;99.54;102286.31;5007269;28;20049;-81
2022/03/16 05:35:08;;;;;;;55.27;40.27;;;;;;;2.72;99.07;102277.19;5013744;28;20042;-81
2022/03/16 05:37:34;;;;;;;54.80;40.00;;;;;;;2.66;99.20;102273.19;5014883;28;20071;-82
2022/03/16 05:40:00;;;;;;;55.40;39.23;;;;;;;2.67;99.22;102285.59;5012948;28;20128;-81
2022/03/16 05:42:25;;;;;;;52.97;37.33;;;;;;;2.69;99.27;102284.50;5013279;28;20068;-83
2022/03/16 05:44:54;;;;;;;52.47;37.83;;;;;;;2.70;99.15;102285.34;5014461;28;20038;-82
2022/03/16 05:47:21;;;;;;;53.90;36.77;;;;;;;2.73;99.28;102279.72;5014825;28;20095;-82
2022/03/16 05:49:47;;;;;;;48.47;35.10;;;;;;;2.70;99.36;102269.28;5014072;28;20283;-81
2022/03/16 05:52:12;;;;;;;49.87;35.30;;;;;;;2.77;98.85;102286.53;5013139;28;20100;-81
2022/03/16 05:54:37;;;;;;;48.97;34.23;;;;;;;2.79;98.79;102276.56;5014397;28;20075;-81
2022/03/16 05:57:03;;;;;;;47.27;34.47;;;;;;;2.77;98.57;102270.47;5014061;28;20185;-81
2022/03/16 05:59:29;;;;;;;45.43;33.43;;;;;;;2.82;98.15;102281.66;5021630;28;20389;-82
2022/03/16 06:01:54;;;;;;;42.63;31.30;;;;;;;2.84;98.48;102284.19;5014117;28;20037;-81
2022/03/16 06:04:19;;;;;;;44.97;31.50;;;;;;;2.84;98.15;102276.16;5013602;28;20075;-84
2022/03/16 06:06:45;;;;;;;41.57;30.67;;;;;;;2.84;98.19;102282.41;5012434;28;20033;-83
2022/03/16 06:09:10;;;;;;;40.03;28.67;;;;;;;2.94;98.55;102286.97;5012612;28;20041;-82
2022/03/16 06:11:36;;;;;;;41.07;28.30;;;;;;;2.96;98.05;102282.34;5014141;28;20045;-81
2022/03/16 06:14:02;;;;;;;40.00;28.70;;;;;;;3.06;98.04;102283.31;5013983;28;20029;-83
2022/03/16 06:16:27;;;;;;;37.63;26.97;;;;;;;3.09;97.46;102277.69;5013744;28;20721;-85
2022/03/16 06:18:53;;;;;;;37.00;26.73;;;;;;;3.18;97.39;102289.44;5013512;28;20213;-83
2022/03/16 06:21:19;;;;;;;38.23;25.73;;;;;;;3.23;97.03;102294.44;5021037;28;20128;-85
2022/03/16 06:23:44;;;;;;;35.53;25.63;;;;;;;3.28;97.21;102301.13;5013022;28;20424;-80
2022/03/16 06:26:09;;;;;;;35.47;24.30;;;;;;;3.33;96.51;102298.91;5013809;28;20645;-82
2022/03/16 06:28:35;;;;;;;34.97;23.67;;;;;;;3.42;96.69;102297.28;5014179;28;21117;-81
2022/03/16 06:31:00;;;;;;;33.40;23.10;;;;;;;3.54;96.55;102306.13;5028609;28;20049;-81
2022/03/16 06:33:25;;;;;;;30.83;21.80;;;;;;;3.63;95.67;102301.78;5011651;28;20389;-77
2022/03/16 06:35:51;;;;;;;32.23;21.67;;;;;;;3.71;95.85;102304.66;5013148;28;20052;-81
2022/03/16 06:38:16;;;;;;;28.83;20.80;;;;;;;3.78;95.05;102297.84;5012504;28;20042;-80
2022/03/16 06:40:42;;;;;;;29.87;20.23;;;;;;;3.86;94.94;102298.03;5013492;28;20489;-81
2022/03/16 06:43:07;;;;;;;27.50;19.90;;;;;;;3.92;94.63;102299.31;5013814;28;20738;-79
2022/03/16 06:45:33;;;;;;;27.30;18.87;;;;;;;4.01;94.13;102301.22;5013534;28;20037;-82
2022/03/16 06:48:00;;;;;;;28.90;18.63;;;;;;;4.09;93.76;102299.69;5013077;28;20135;-80
2022/03/16 06:50:27;;;;;;;30.67;19.80;;;;;;;4.13;93.58;102304.63;5013578;28;20033;-83
2022/03/16 06:52:54;;;;;;;26.20;17.80;;;;;;;4.21;93.18;102306.66;5013424;28;20084;-81
2022/03/16 06:55:20;;;;;;;27.20;17.80;;;;;;;4.30;93.06;102305.03;5012682;28;20354;-80
2022/03/16 06:57:45;;;;;;;25.90;17.80;;;;;;;4.36;92.59;102296.41;5013313;28;20108;-80
2022/03/16 07:00:13;;;;;;;24.33;17.00;;;;;;;4.46;92.03;102297.31;5013439;28;20113;-82
2022/03/16 07:02:55;;;;;;;26.80;17.10;;;;;;;4.56;91.96;102298.19;5013366;28;20029;-85
2022/03/16 07:05:24;;;;;;;25.83;16.73;;;;;;;4.68;91.30;102295.41;5012918;28;20420;-82
2022/03/16 07:07:49;;;;;;;25.03;16.33;;;;;;;4.79;90.95;102289.91;5013593;28;20037;-81
2022/03/16 07:10:15;;;;;;;24.53;15.80;;;;;;;4.92;90.57;102280.75;5012926;28;20049;-79
2022/03/16 07:12:40;;;;;;;24.93;15.77;;;;;;;5.03;89.56;102277.94;5012985;28;20069;-82
2022/03/16 07:15:07;;;;;;;24.17;14.93;;;;;;;5.09;88.84;102269.31;5012915;28;20689;-82
2022/03/16 07:17:32;;;;;;;24.27;16.27;;;;;;;5.28;87.91;102275.69;5028425;28;20484;-83
2022/03/16 07:19:57;;;;;;;25.17;15.83;;;;;;;5.37;87.96;102272.13;5003124;28;20041;-82
2022/03/16 07:22:23;;;;;;;21.70;14.63;;;;;;;5.47;87.37;102266.78;5013073;28;20869;-83
2022/03/16 07:24:48;;;;;;;24.27;14.17;;;;;;;5.64;86.76;102273.25;5011241;28;20489;-84
2022/03/16 07:27:14;;;;;;;23.13;14.97;;;;;;;5.77;86.49;102257.66;5013076;28;20049;-81
2022/03/16 07:29:40;;;;;;;21.40;13.60;;;;;;;5.84;85.44;102253.38;5012835;28;20460;-82
2022/03/16 07:32:06;;;;;;;22.33;14.17;;;;;;;5.95;84.84;102252.34;5012404;28;20041;-82
2022/03/16 07:34:31;;;;;;;21.00;13.50;;;;;;;6.04;84.24;102256.91;5012337;28;20033;-82
2022/03/16 07:36:56;;;;;;;20.03;13.57;;;;;;;6.11;83.97;102256.31;5006196;28;20041;-84
2022/03/16 07:39:22;;;;;;;21.10;12.43;;;;;;;6.16;83.30;102254.00;5012888;28;20041;-82
2022/03/16 07:41:48;;;;;;;20.77;13.30;;;;;;;6.21;82.77;102252.56;5028382;28;20381;-82
2022/03/16 07:44:13;;;;;;;21.50;13.40;;;;;;;6.26;81.93;102249.44;5012729;28;20037;-82
2022/03/16 07:46:39;;;;;;;21.10;13.97;;;;;;;6.32;81.94;102254.22;5013395;28;20065;-83
2022/03/16 07:49:04;;;;;;;20.07;13.17;;;;;;;6.40;82.52;102242.72;5011991;28;20038;-84
2022/03/16 07:51:29;;;;;;;19.40;13.10;;;;;;;6.44;80.86;102245.97;5011187;28;20054;-80
2022/03/16 07:53:55;;;;;;;20.37;12.70;;;;;;;6.52;80.84;102238.81;5013259;28;20420;-85
2022/03/16 07:56:20;;;;;;;18.90;12.77;;;;;;;6.57;80.68;102235.69;5012605;28;20092;-81
2022/03/16 07:58:46;;;;;;;19.67;13.07;;;;;;;6.71;80.76;102243.22;5014098;28;20057;-79
2022/03/16 08:01:11;;;;;;;19.07;12.77;;;;;;;6.86;80.54;102251.63;5017544;28;20041;-82
2022/03/16 08:03:37;;;;;;;19.17;12.73;;;;;;;7.01;79.99;102238.47;5016897;28;20360;-80
2022/03/16 08:06:03;;;;;;;19.50;12.83;;;;;;;7.10;78.79;102248.34;5015959;28;20037;-81
2022/03/16 08:08:29;;;;;;;19.50;12.73;;;;;;;7.22;78.49;102240.00;5006793;28;20026;-81
2022/03/16 08:10:55;;;;;;;19.73;12.30;;;;;;;7.27;77.13;102240.41;5012928;28;20041;-83
2022/03/16 08:13:20;;;;;;;19.50;12.50;;;;;;;7.39;77.38;102241.84;5014534;28;20045;-86
2022/03/16 08:15:46;;;;;;;18.20;12.10;;;;;;;7.49;77.09;102247.13;5016246;28;20045;-86
2022/03/16 08:18:12;;;;;;;19.40;13.00;;;;;;;7.63;76.52;102242.19;5016551;28;20472;-78
2022/03/16 08:20:37;;;;;;;19.00;12.37;;;;;;;7.80;75.88;102256.63;5016898;28;20106;-82
2022/03/16 08:23:03;;;;;;;19.70;13.10;;;;;;;7.96;75.55;102264.84;5016813;28;20083;-84
2022/03/16 08:25:29;;;;;;;19.37;12.60;;;;;;;8.11;74.43;102255.13;5015727;28;20045;-80
2022/03/16 08:27:54;;;;;;;17.33;12.40;;;;;;;8.31;74.15;102257.59;5009901;28;20045;-88
2022/03/16 08:30:20;;;;;;;18.10;13.03;;;;;;;8.40;73.31;102251.19;5014190;28;20518;-85
2022/03/16 08:32:45;;;;;;;19.27;12.80;;;;;;;8.41;73.16;102255.59;4998275;28;20042;-86
2022/03/16 08:35:11;;;;;;;18.93;12.73;;;;;;;8.37;72.59;102264.19;5015815;28;20029;-78
2022/03/16 08:37:37;;;;;;;17.73;13.03;;;;;;;8.33;72.89;102254.72;5016552;28;20465;-86
2022/03/16 08:40:04;;;;;;;17.33;12.40;;;;;;;8.41;72.34;102254.75;5015786;28;20409;-87
2022/03/16 08:42:29;;;;;;;18.07;12.63;;;;;;;8.52;72.01;102246.38;5014061;28;20381;-87
2022/03/16 08:44:55;;;;;;;19.70;13.27;;;;;;;8.66;71.93;102246.75;5015400;28;20063;-85
2022/03/16 08:47:21;;;;;;;18.10;12.83;;;;;;;8.80;71.15;102238.03;5015570;28;20041;-82
2022/03/16 08:49:48;;;;;;;19.27;12.00;;;;;;;8.80;70.04;102229.91;5006849;28;20037;-84
2022/03/16 08:52:14;;;;;;;19.73;13.87;;;;;;;8.93;69.88;102241.09;5030726;28;20044;-82
2022/03/16 08:54:40;;;;;;;17.77;12.63;;;;;;;9.01;69.53;102253.75;5015825;28;20568;-82
2022/03/16 08:57:09;;;;;;;18.90;13.63;;;;;;;9.18;69.45;102243.81;5015249;28;20037;-82
2022/03/16 08:59:35;;;;;;;16.83;12.37;;;;;;;9.20;68.60;102246.34;5015720;28;20061;-83
2022/03/16 09:02:01;;;;;;;20.43;13.90;;;;;;;9.27;68.75;102237.41;5008505;28;20064;-85
2022/03/16 09:04:26;;;;;;;20.87;13.87;;;;;;;9.38;68.23;102243.47;5015446;28;20037;-80
2022/03/16 09:06:52;;;;;;;20.53;14.10;;;;;;;9.53;67.89;102236.34;5015892;28;20492;-82
2022/03/16 09:09:17;;;;;;;19.77;13.87;;;;;;;9.81;67.50;102246.81;5015781;28;20114;-86
2022/03/16 09:11:42;;;;;;;18.50;12.80;;;;;;;9.95;66.59;102246.13;5014253;28;20049;-85
2022/03/16 09:14:08;;;;;;;19.10;13.63;;;;;;;9.97;65.74;102246.78;5014260;28;20164;-80
2022/03/16 09:16:34;;;;;;;19.03;13.27;;;;;;;10.13;66.44;102253.13;5015070;28;20102;-87
2022/03/16 09:19:00;;;;;;;18.80;13.97;;;;;;;10.19;65.27;102246.22;5015725;28;20064;-82
2022/03/16 09:21:25;;;;;;;19.57;13.37;;;;;;;10.23;64.19;102232.13;5014846;28;20045;-82
2022/03/16 09:23:52;;;;;;;19.77;13.80;;;;;;;10.47;65.29;102247.47;5013998;28;20473;-87
2022/03/16 09:26:18;;;;;;;18.37;13.23;;;;;;;10.59;63.46;102247.06;5028549;28;20380;-80
2022/03/16 09:28:44;;;;;;;19.47;13.33;;;;;;;10.63;63.01;102241.13;5014709;28;20666;-88
2022/03/16 09:31:10;;;;;;;18.77;13.57;;;;;;;10.62;62.94;102220.47;5012937;28;20045;-86
2022/03/16 09:33:35;;;;;;;21.37;14.00;;;;;;;10.66;62.60;102230.94;5014618;28;20042;-82
2022/03/16 09:36:08;;;;;;;19.03;13.57;;;;;;;10.67;62.47;102229.91;5014687;28;20504;-85
2022/03/16 09:38:34;;;;;;;20.10;14.07;;;;;;;10.67;62.66;102216.38;5012758;28;20030;-76
2022/03/16 09:41:01;;;;;;;18.43;12.60;;;;;;;10.81;62.36;102235.41;5012458;28;20037;-85
2022/03/16 09:43:27;;;;;;;19.30;13.77;;;;;;;10.97;62.07;102237.19;5014489;28;20050;-79
2022/03/16 09:46:04;;;;;;;20.20;13.20;;;;;;;11.09;62.22;102234.03;5014516;28;20488;-83
2022/03/16 09:48:31;;;;;;;19.43;13.77;;;;;;;11.15;61.78;102226.03;5013773;28;20120;-83
2022/03/16 09:50:58;;;;;;;20.03;14.03;;;;;;;11.26;61.27;102248.31;5014084;28;20049;-79
2022/03/16 09:53:26;;;;;;;18.80;13.70;;;;;;;11.46;61.59;102243.22;5014487;28;20037;-87
2022/03/16 09:55:52;;;;;;;20.40;14.30;;;;;;;11.54;61.58;102234.16;5029130;28;20486;-87
2022/03/16 09:58:20;;;;;;;19.53;14.30;;;;;;;11.63;60.32;102239.34;5013966;28;20045;-84
2022/03/16 10:00:46;;;;;;;18.63;13.00;;;;;;;11.77;59.44;102240.38;5009587;28;20030;-81
2022/03/16 10:03:12;;;;;;;19.43;14.57;;;;;;;11.92;59.52;102243.09;5007672;28;20039;-86
2022/03/16 10:05:38;;;;;;;19.67;13.90;;;;;;;12.20;59.21;102238.91;5008135;28;20041;-83
2022/03/16 10:08:08;;;;;;;19.90;14.30;;;;;;;12.39;58.70;102221.19;5008044;28;20666;-86
2022/03/16 10:13:24;;;;;;;20.70;14.20;;;;;;;12.26;58.17;102228.13;5008585;28;20056;-81
2022/03/16 10:16:07;;;;;;;19.90;14.27;;;;;;;12.22;57.59;102215.97;4999022;28;20087;-84
2022/03/16 10:18:35;;;;;;;20.53;14.47;;;;;;;12.33;58.11;102217.34;5007508;28;20048;-83
2022/03/16 10:21:00;;;;;;;19.57;14.47;;;;;;;12.55;57.59;102215.53;5007353;28;20037;-80
2022/03/16 10:23:28;;;;;;;20.43;14.37;;;;;;;12.71;58.42;102227.22;5007749;28;20033;-84
2022/03/16 10:25:58;;;;;;;19.27;14.13;;;;;;;12.84;57.87;102224.66;5007650;28;20038;-89
2022/03/16 10:28:31;;;;;;;19.40;14.80;;;;;;;12.80;57.46;102217.91;5007383;28;20068;-85
2022/03/16 10:31:19;;;;;;;20.70;14.48;;;;;;;12.97;56.90;102221.19;5007450;28;20105;-84
2022/03/16 10:33:49;;;;;;;20.63;14.73;;;;;;;13.07;58.44;102229.91;5007812;28;20053;-85
2022/03/16 10:36:17;;;;;;;18.80;13.83;;;;;;;13.11;56.42;102224.88;5007176;28;20043;-84
2022/03/16 10:38:44;;;;;;;19.97;14.33;;;;;;;13.22;56.00;102221.66;5007308;28;20025;-83
2022/03/16 10:47:11;;;;;;;19.40;14.27;;;;;;;13.44;55.96;102224.38;5008887;28;20052;-83
2022/03/16 10:49:38;;;;;;;20.93;15.50;;;;;;;13.58;55.62;102207.09;5003526;28;20477;-85
2022/03/16 10:52:11;;;;;;;20.30;14.40;;;;;;;13.66;55.22;102220.56;5008693;28;20195;-82
2022/03/16 10:54:38;;;;;;;20.77;15.25;;;;;;;13.53;54.85;102206.88;5009518;28;20057;-85
2022/03/16 10:57:10;;;;;;;19.27;14.53;;;;;;;13.58;55.69;102198.91;5008825;28;20623;-84
2022/03/16 10:59:36;;;;;;;20.20;14.87;;;;;;;13.88;54.92;102198.69;5009499;28;20164;-82
2022/03/16 11:02:12;;;;;;;19.97;14.70;;;;;;;14.09;55.03;102196.91;5008680;28;20037;-82
2022/03/16 11:04:39;;;;;;;19.27;14.50;;;;;;;14.05;53.86;102195.63;5009587;28;20041;-84
2022/03/16 11:07:06;;;;;;;19.27;14.53;;;;;;;14.25;55.24;102182.97;5009243;28;20033;-85
2022/03/16 11:09:32;;;;;;;18.83;13.73;;;;;;;14.36;53.61;102184.25;5009567;28;20497;-83
2022/03/16 11:14:44;;;;;;;19.95;13.98;;;;;;;14.45;53.57;102193.09;5011348;28;20103;-85
2022/03/16 11:17:10;;;;;;;18.93;14.30;;;;;;;14.36;52.89;102189.72;5009444;28;20041;-85
2022/03/16 11:19:36;;;;;;;19.23;13.97;;;;;;;14.18;53.49;102177.47;5011038;28;20039;-82
2022/03/16 11:22:11;;;;;;;21.27;14.03;;;;;;;14.22;53.94;102180.63;5010720;28;20075;-83
2022/03/16 11:24:39;;;;;;;;;;;;;;;14.29;53.72;102184.22;5011453;28;20041;-82